sensor_id;sensor_type;location;lat;lon;timestamp;P1;durP1;ratioP1;P2;durP2;ratioP2
20478;SDS011;10398;52.490;13.434;2023-06-10T00:01:26;5.78;;;2.13;;
20478;SDS011;10398;52.490;13.434;2023-06-10T00:03:52;5.85;;;2.40;;
20478;SDS011;10398;52.490;13.434;2023-06-10T00:06:19;7.38;;;2.55;;
20478;SDS011;10398;52.490;13.434;2023-06-10T00:08:46;5.05;;;2.17;;
20478;SDS011;10398;52.490;13.434;2023-06-10T00:11:12;7.05;;;3.08;;
20478;SDS011;10398;52.490;13.434;2023-06-10T00:13:38;5.57;;;2.53;;
20478;SDS011;10398;52.490;13.434;2023-06-10T00:16:05;6.43;;;2.53;;
20478;SDS011;10398;52.490;13.434;2023-06-10T00:18:30;6.85;;;2.28;;
20478;SDS011;10398;52.490;13.434;2023-06-10T00:20:56;5.18;;;2.38;;
20478;SDS011;10398;52.490;13.434;2023-06-10T00:23:28;10.50;;;3.05;;
20478;SDS011;10398;52.490;13.434;2023-06-10T00:25:55;13.43;;;3.20;;
20478;SDS011;10398;52.490;13.434;2023-06-10T00:28:24;8.50;;;2.85;;
20478;SDS011;10398;52.490;13.434;2023-06-10T00:30:51;5.53;;;2.28;;
20478;SDS011;10398;52.490;13.434;2023-06-10T00:33:16;8.30;;;2.70;;
20478;SDS011;10398;52.490;13.434;2023-06-10T00:35:42;10.10;;;3.03;;
20478;SDS011;10398;52.490;13.434;2023-06-10T00:38:07;8.23;;;2.60;;
20478;SDS011;10398;52.490;13.434;2023-06-10T00:40:35;7.93;;;3.75;;
20478;SDS011;10398;52.490;13.434;2023-06-10T00:43:04;17.75;;;4.72;;
20478;SDS011;10398;52.490;13.434;2023-06-10T00:45:31;6.90;;;2.78;;
20478;SDS011;10398;52.490;13.434;2023-06-10T00:47:57;8.90;;;2.78;;
20478;SDS011;10398;52.490;13.434;2023-06-10T00:50:23;5.55;;;2.50;;
20478;SDS011;10398;52.490;13.434;2023-06-10T00:52:49;7.00;;;2.03;;
20478;SDS011;10398;52.490;13.434;2023-06-10T00:55:16;6.95;;;2.33;;
20478;SDS011;10398;52.490;13.434;2023-06-10T00:57:43;9.77;;;2.33;;
20478;SDS011;10398;52.490;13.434;2023-06-10T01:00:11;4.88;;;2.38;;
20478;SDS011;10398;52.490;13.434;2023-06-10T01:02:38;7.70;;;2.58;;
20478;SDS011;10398;52.490;13.434;2023-06-10T01:05:04;8.02;;;2.63;;
20478;SDS011;10398;52.490;13.434;2023-06-10T01:10:06;7.38;;;2.30;;
20478;SDS011;10398;52.490;13.434;2023-06-10T01:12:43;7.00;;;2.15;;
20478;SDS011;10398;52.490;13.434;2023-06-10T01:15:21;8.18;;;2.35;;
20478;SDS011;10398;52.490;13.434;2023-06-10T01:17:54;8.88;;;2.30;;
20478;SDS011;10398;52.490;13.434;2023-06-10T01:20:25;6.20;;;2.22;;
20478;SDS011;10398;52.490;13.434;2023-06-10T01:22:54;7.22;;;2.95;;
20478;SDS011;10398;52.490;13.434;2023-06-10T01:25:23;4.70;;;2.30;;
20478;SDS011;10398;52.490;13.434;2023-06-10T01:27:53;6.75;;;2.33;;
20478;SDS011;10398;52.490;13.434;2023-06-10T01:33:37;5.82;;;2.58;;
20478;SDS011;10398;52.490;13.434;2023-06-10T01:36:07;7.22;;;2.17;;
20478;SDS011;10398;52.490;13.434;2023-06-10T01:38:36;8.70;;;2.53;;
20478;SDS011;10398;52.490;13.434;2023-06-10T01:41:06;8.68;;;2.47;;
20478;SDS011;10398;52.490;13.434;2023-06-10T01:43:33;8.35;;;2.75;;
20478;SDS011;10398;52.490;13.434;2023-06-10T01:45:59;5.93;;;2.17;;
20478;SDS011;10398;52.490;13.434;2023-06-10T01:48:25;6.65;;;2.30;;
20478;SDS011;10398;52.490;13.434;2023-06-10T01:50:51;8.15;;;2.38;;
20478;SDS011;10398;52.490;13.434;2023-06-10T01:53:17;6.22;;;2.22;;
20478;SDS011;10398;52.490;13.434;2023-06-10T01:55:42;9.30;;;2.80;;
20478;SDS011;10398;52.490;13.434;2023-06-10T01:58:08;7.50;;;2.80;;
20478;SDS011;10398;52.490;13.434;2023-06-10T02:00:34;6.65;;;2.20;;
20478;SDS011;10398;52.490;13.434;2023-06-10T02:02:59;7.45;;;2.15;;
20478;SDS011;10398;52.490;13.434;2023-06-10T02:05:25;7.85;;;2.42;;
20478;SDS011;10398;52.490;13.434;2023-06-10T02:07:50;7.85;;;3.15;;
20478;SDS011;10398;52.490;13.434;2023-06-10T02:10:16;7.95;;;2.20;;
20478;SDS011;10398;52.490;13.434;2023-06-10T02:12:42;7.60;;;2.38;;
20478;SDS011;10398;52.490;13.434;2023-06-10T02:15:07;8.38;;;2.33;;
20478;SDS011;10398;52.490;13.434;2023-06-10T02:17:33;5.03;;;2.38;;
20478;SDS011;10398;52.490;13.434;2023-06-10T02:19:58;6.85;;;2.58;;
20478;SDS011;10398;52.490;13.434;2023-06-10T02:22:25;9.48;;;2.45;;
20478;SDS011;10398;52.490;13.434;2023-06-10T02:24:50;9.32;;;3.70;;
20478;SDS011;10398;52.490;13.434;2023-06-10T02:27:16;6.72;;;2.53;;
20478;SDS011;10398;52.490;13.434;2023-06-10T02:29:42;11.75;;;2.42;;
20478;SDS011;10398;52.490;13.434;2023-06-10T02:32:08;4.70;;;2.33;;
20478;SDS011;10398;52.490;13.434;2023-06-10T02:34:34;6.88;;;2.25;;
20478;SDS011;10398;52.490;13.434;2023-06-10T02:37:01;8.13;;;2.30;;
20478;SDS011;10398;52.490;13.434;2023-06-10T02:39:27;10.60;;;2.08;;
20478;SDS011;10398;52.490;13.434;2023-06-10T02:41:53;5.95;;;2.60;;
20478;SDS011;10398;52.490;13.434;2023-06-10T02:44:19;9.00;;;2.33;;
20478;SDS011;10398;52.490;13.434;2023-06-10T02:46:45;8.63;;;2.60;;
20478;SDS011;10398;52.490;13.434;2023-06-10T02:49:11;11.20;;;2.63;;
20478;SDS011;10398;52.490;13.434;2023-06-10T02:51:37;6.38;;;2.22;;
20478;SDS011;10398;52.490;13.434;2023-06-10T02:54:03;9.63;;;3.22;;
20478;SDS011;10398;52.490;13.434;2023-06-10T02:56:30;10.68;;;2.42;;
20478;SDS011;10398;52.490;13.434;2023-06-10T02:58:56;5.80;;;2.78;;
20478;SDS011;10398;52.490;13.434;2023-06-10T03:01:22;6.68;;;2.30;;
20478;SDS011;10398;52.490;13.434;2023-06-10T03:03:48;6.50;;;2.95;;
20478;SDS011;10398;52.490;13.434;2023-06-10T03:06:15;7.25;;;2.92;;
20478;SDS011;10398;52.490;13.434;2023-06-10T03:08:41;8.35;;;2.47;;
20478;SDS011;10398;52.490;13.434;2023-06-10T03:11:06;8.00;;;2.75;;
20478;SDS011;10398;52.490;13.434;2023-06-10T03:13:32;9.55;;;2.17;;
20478;SDS011;10398;52.490;13.434;2023-06-10T03:15:58;5.70;;;2.45;;
20478;SDS011;10398;52.490;13.434;2023-06-10T03:18:25;7.78;;;2.70;;
20478;SDS011;10398;52.490;13.434;2023-06-10T03:20:52;11.63;;;3.47;;
20478;SDS011;10398;52.490;13.434;2023-06-10T03:23:18;5.35;;;2.35;;
20478;SDS011;10398;52.490;13.434;2023-06-10T03:25:44;5.97;;;2.10;;
20478;SDS011;10398;52.490;13.434;2023-06-10T03:28:10;7.55;;;2.10;;
20478;SDS011;10398;52.490;13.434;2023-06-10T03:30:36;9.23;;;2.97;;
20478;SDS011;10398;52.490;13.434;2023-06-10T03:33:02;8.13;;;2.58;;
20478;SDS011;10398;52.490;13.434;2023-06-10T03:35:27;6.03;;;2.38;;
20478;SDS011;10398;52.490;13.434;2023-06-10T03:37:54;5.40;;;2.40;;
20478;SDS011;10398;52.490;13.434;2023-06-10T03:40:20;8.88;;;3.15;;
20478;SDS011;10398;52.490;13.434;2023-06-10T03:42:45;6.35;;;2.65;;
20478;SDS011;10398;52.490;13.434;2023-06-10T03:45:11;8.07;;;2.50;;
20478;SDS011;10398;52.490;13.434;2023-06-10T03:47:37;6.90;;;2.78;;
20478;SDS011;10398;52.490;13.434;2023-06-10T03:50:03;6.57;;;2.30;;
20478;SDS011;10398;52.490;13.434;2023-06-10T03:52:29;7.75;;;2.65;;
20478;SDS011;10398;52.490;13.434;2023-06-10T03:54:55;8.57;;;3.20;;
20478;SDS011;10398;52.490;13.434;2023-06-10T03:57:21;9.07;;;3.50;;
20478;SDS011;10398;52.490;13.434;2023-06-10T03:59:47;6.93;;;2.63;;
20478;SDS011;10398;52.490;13.434;2023-06-10T04:02:12;6.95;;;3.00;;
20478;SDS011;10398;52.490;13.434;2023-06-10T04:04:38;7.40;;;3.10;;
20478;SDS011;10398;52.490;13.434;2023-06-10T04:07:04;12.07;;;2.70;;
20478;SDS011;10398;52.490;13.434;2023-06-10T04:09:30;9.10;;;2.42;;
20478;SDS011;10398;52.490;13.434;2023-06-10T04:11:55;7.20;;;2.63;;
20478;SDS011;10398;52.490;13.434;2023-06-10T04:14:21;11.70;;;3.28;;
20478;SDS011;10398;52.490;13.434;2023-06-10T04:16:47;5.13;;;2.50;;
20478;SDS011;10398;52.490;13.434;2023-06-10T04:19:12;6.90;;;2.60;;
20478;SDS011;10398;52.490;13.434;2023-06-10T04:21:38;10.18;;;3.30;;
20478;SDS011;10398;52.490;13.434;2023-06-10T04:24:04;7.47;;;3.05;;
20478;SDS011;10398;52.490;13.434;2023-06-10T04:26:30;6.35;;;2.85;;
20478;SDS011;10398;52.490;13.434;2023-06-10T04:28:55;12.80;;;3.55;;
20478;SDS011;10398;52.490;13.434;2023-06-10T04:31:21;8.32;;;3.00;;
20478;SDS011;10398;52.490;13.434;2023-06-10T04:33:46;8.07;;;2.97;;
20478;SDS011;10398;52.490;13.434;2023-06-10T04:36:12;9.80;;;2.92;;
20478;SDS011;10398;52.490;13.434;2023-06-10T04:38:39;7.53;;;2.53;;
20478;SDS011;10398;52.490;13.434;2023-06-10T04:41:05;7.28;;;3.40;;
20478;SDS011;10398;52.490;13.434;2023-06-10T04:43:31;6.85;;;2.80;;
20478;SDS011;10398;52.490;13.434;2023-06-10T04:45:57;7.40;;;3.15;;
20478;SDS011;10398;52.490;13.434;2023-06-10T04:48:22;12.02;;;3.63;;
20478;SDS011;10398;52.490;13.434;2023-06-10T04:50:49;6.25;;;2.50;;
20478;SDS011;10398;52.490;13.434;2023-06-10T04:53:15;11.48;;;3.30;;
20478;SDS011;10398;52.490;13.434;2023-06-10T04:55:41;9.88;;;3.15;;
20478;SDS011;10398;52.490;13.434;2023-06-10T04:58:07;7.13;;;3.15;;
20478;SDS011;10398;52.490;13.434;2023-06-10T05:00:33;9.02;;;3.35;;
20478;SDS011;10398;52.490;13.434;2023-06-10T05:02:58;5.65;;;2.40;;
20478;SDS011;10398;52.490;13.434;2023-06-10T05:05:24;5.85;;;2.72;;
20478;SDS011;10398;52.490;13.434;2023-06-10T05:07:50;5.55;;;2.85;;
20478;SDS011;10398;52.490;13.434;2023-06-10T05:10:15;8.75;;;3.50;;
20478;SDS011;10398;52.490;13.434;2023-06-10T05:12:41;8.63;;;2.75;;
20478;SDS011;10398;52.490;13.434;2023-06-10T05:15:07;8.68;;;3.35;;
20478;SDS011;10398;52.490;13.434;2023-06-10T05:17:34;10.05;;;3.80;;
20478;SDS011;10398;52.490;13.434;2023-06-10T05:20:02;9.98;;;3.08;;
20478;SDS011;10398;52.490;13.434;2023-06-10T05:22:28;9.43;;;3.55;;
20478;SDS011;10398;52.490;13.434;2023-06-10T05:24:54;8.35;;;3.50;;
20478;SDS011;10398;52.490;13.434;2023-06-10T05:27:20;11.85;;;3.72;;
20478;SDS011;10398;52.490;13.434;2023-06-10T05:29:47;6.95;;;3.42;;
20478;SDS011;10398;52.490;13.434;2023-06-10T05:32:12;11.90;;;3.40;;
20478;SDS011;10398;52.490;13.434;2023-06-10T05:34:38;10.25;;;3.47;;
20478;SDS011;10398;52.490;13.434;2023-06-10T05:37:04;9.32;;;3.92;;
20478;SDS011;10398;52.490;13.434;2023-06-10T05:39:30;9.50;;;3.03;;
20478;SDS011;10398;52.490;13.434;2023-06-10T05:41:56;9.65;;;2.95;;
20478;SDS011;10398;52.490;13.434;2023-06-10T05:44:23;10.73;;;3.80;;
20478;SDS011;10398;52.490;13.434;2023-06-10T05:46:49;10.73;;;3.58;;
20478;SDS011;10398;52.490;13.434;2023-06-10T05:49:16;10.35;;;3.85;;
20478;SDS011;10398;52.490;13.434;2023-06-10T05:51:41;11.45;;;3.88;;
20478;SDS011;10398;52.490;13.434;2023-06-10T05:54:07;12.57;;;3.67;;
20478;SDS011;10398;52.490;13.434;2023-06-10T05:56:32;8.50;;;3.78;;
20478;SDS011;10398;52.490;13.434;2023-06-10T05:58:58;5.88;;;3.00;;
20478;SDS011;10398;52.490;13.434;2023-06-10T06:01:24;8.60;;;4.07;;
20478;SDS011;10398;52.490;13.434;2023-06-10T06:03:50;10.90;;;3.80;;
20478;SDS011;10398;52.490;13.434;2023-06-10T06:06:15;8.48;;;3.10;;
20478;SDS011;10398;52.490;13.434;2023-06-10T06:08:41;7.68;;;3.40;;
20478;SDS011;10398;52.490;13.434;2023-06-10T06:11:07;9.57;;;3.88;;
20478;SDS011;10398;52.490;13.434;2023-06-10T06:13:32;8.73;;;3.15;;
20478;SDS011;10398;52.490;13.434;2023-06-10T06:15:58;8.70;;;3.80;;
20478;SDS011;10398;52.490;13.434;2023-06-10T06:18:24;7.97;;;3.50;;
20478;SDS011;10398;52.490;13.434;2023-06-10T06:20:49;7.18;;;3.75;;
20478;SDS011;10398;52.490;13.434;2023-06-10T06:23:15;8.85;;;3.85;;
20478;SDS011;10398;52.490;13.434;2023-06-10T06:25:40;10.68;;;3.35;;
20478;SDS011;10398;52.490;13.434;2023-06-10T06:28:06;4.57;;;3.33;;
20478;SDS011;10398;52.490;13.434;2023-06-10T06:30:34;9.23;;;4.63;;
20478;SDS011;10398;52.490;13.434;2023-06-10T06:33:00;7.30;;;3.63;;
20478;SDS011;10398;52.490;13.434;2023-06-10T06:35:25;10.73;;;3.70;;
20478;SDS011;10398;52.490;13.434;2023-06-10T06:37:51;7.55;;;3.58;;
20478;SDS011;10398;52.490;13.434;2023-06-10T06:40:16;7.78;;;3.47;;
20478;SDS011;10398;52.490;13.434;2023-06-10T06:42:42;11.55;;;4.10;;
20478;SDS011;10398;52.490;13.434;2023-06-10T06:45:08;8.95;;;3.70;;
20478;SDS011;10398;52.490;13.434;2023-06-10T06:47:34;14.38;;;3.97;;
20478;SDS011;10398;52.490;13.434;2023-06-10T06:50:00;9.50;;;3.38;;
20478;SDS011;10398;52.490;13.434;2023-06-10T06:52:25;12.18;;;4.03;;
20478;SDS011;10398;52.490;13.434;2023-06-10T06:54:51;6.00;;;3.55;;
20478;SDS011;10398;52.490;13.434;2023-06-10T06:57:17;12.35;;;3.83;;
20478;SDS011;10398;52.490;13.434;2023-06-10T06:59:42;8.27;;;3.72;;
20478;SDS011;10398;52.490;13.434;2023-06-10T07:02:08;11.32;;;5.55;;
20478;SDS011;10398;52.490;13.434;2023-06-10T07:04:33;11.13;;;4.53;;
20478;SDS011;10398;52.490;13.434;2023-06-10T07:06:59;8.38;;;4.07;;
20478;SDS011;10398;52.490;13.434;2023-06-10T07:09:25;7.68;;;3.58;;
20478;SDS011;10398;52.490;13.434;2023-06-10T07:11:51;10.15;;;3.83;;
20478;SDS011;10398;52.490;13.434;2023-06-10T07:14:16;15.00;;;3.97;;
20478;SDS011;10398;52.490;13.434;2023-06-10T07:16:42;14.10;;;3.30;;
20478;SDS011;10398;52.490;13.434;2023-06-10T07:19:10;10.05;;;4.13;;
20478;SDS011;10398;52.490;13.434;2023-06-10T07:21:35;10.32;;;3.60;;
20478;SDS011;10398;52.490;13.434;2023-06-10T07:24:01;10.25;;;3.63;;
20478;SDS011;10398;52.490;13.434;2023-06-10T07:26:27;10.27;;;3.50;;
20478;SDS011;10398;52.490;13.434;2023-06-10T07:28:52;8.05;;;3.60;;
20478;SDS011;10398;52.490;13.434;2023-06-10T07:31:18;7.93;;;3.50;;
20478;SDS011;10398;52.490;13.434;2023-06-10T07:33:44;12.77;;;3.75;;
20478;SDS011;10398;52.490;13.434;2023-06-10T07:36:11;11.32;;;4.28;;
20478;SDS011;10398;52.490;13.434;2023-06-10T07:38:37;9.23;;;3.70;;
20478;SDS011;10398;52.490;13.434;2023-06-10T07:41:02;7.80;;;4.05;;
20478;SDS011;10398;52.490;13.434;2023-06-10T07:43:29;10.30;;;4.38;;
20478;SDS011;10398;52.490;13.434;2023-06-10T07:45:55;11.38;;;3.83;;
20478;SDS011;10398;52.490;13.434;2023-06-10T07:48:20;9.10;;;3.92;;
20478;SDS011;10398;52.490;13.434;2023-06-10T07:50:46;8.80;;;4.10;;
20478;SDS011;10398;52.490;13.434;2023-06-10T07:53:12;10.60;;;4.10;;
20478;SDS011;10398;52.490;13.434;2023-06-10T07:55:37;6.15;;;3.28;;
20478;SDS011;10398;52.490;13.434;2023-06-10T07:58:03;12.32;;;3.53;;
20478;SDS011;10398;52.490;13.434;2023-06-10T08:00:28;6.10;;;3.38;;
20478;SDS011;10398;52.490;13.434;2023-06-10T08:02:54;7.22;;;3.85;;
20478;SDS011;10398;52.490;13.434;2023-06-10T08:05:20;8.75;;;4.10;;
20478;SDS011;10398;52.490;13.434;2023-06-10T08:07:46;7.10;;;3.60;;
20478;SDS011;10398;52.490;13.434;2023-06-10T08:10:12;12.73;;;4.15;;
20478;SDS011;10398;52.490;13.434;2023-06-10T08:12:37;7.55;;;4.10;;
20478;SDS011;10398;52.490;13.434;2023-06-10T08:15:03;10.32;;;4.30;;
20478;SDS011;10398;52.490;13.434;2023-06-10T08:17:32;10.88;;;3.80;;
20478;SDS011;10398;52.490;13.434;2023-06-10T08:19:59;10.38;;;4.22;;
20478;SDS011;10398;52.490;13.434;2023-06-10T08:22:25;10.38;;;4.47;;
20478;SDS011;10398;52.490;13.434;2023-06-10T08:24:51;14.98;;;4.25;;
20478;SDS011;10398;52.490;13.434;2023-06-10T08:27:16;9.93;;;4.20;;
20478;SDS011;10398;52.490;13.434;2023-06-10T08:29:42;10.23;;;4.38;;
20478;SDS011;10398;52.490;13.434;2023-06-10T08:32:07;11.82;;;4.30;;
20478;SDS011;10398;52.490;13.434;2023-06-10T08:34:33;14.23;;;4.13;;
20478;SDS011;10398;52.490;13.434;2023-06-10T08:37:03;9.85;;;4.90;;
20478;SDS011;10398;52.490;13.434;2023-06-10T08:39:29;11.90;;;4.10;;
20478;SDS011;10398;52.490;13.434;2023-06-10T08:44:26;8.27;;;4.40;;
20478;SDS011;10398;52.490;13.434;2023-06-10T08:46:55;9.18;;;5.00;;
20478;SDS011;10398;52.490;13.434;2023-06-10T08:49:22;6.70;;;4.05;;
20478;SDS011;10398;52.490;13.434;2023-06-10T08:51:50;13.43;;;5.15;;
20478;SDS011;10398;52.490;13.434;2023-06-10T08:54:24;5.82;;;4.15;;
20478;SDS011;10398;52.490;13.434;2023-06-10T08:56:54;10.52;;;4.70;;
20478;SDS011;10398;52.490;13.434;2023-06-10T08:59:22;8.45;;;4.47;;
20478;SDS011;10398;52.490;13.434;2023-06-10T09:01:48;9.73;;;4.38;;
20478;SDS011;10398;52.490;13.434;2023-06-10T09:04:15;10.40;;;4.47;;
20478;SDS011;10398;52.490;13.434;2023-06-10T09:06:42;9.35;;;4.75;;
20478;SDS011;10398;52.490;13.434;2023-06-10T09:09:09;9.18;;;4.45;;
20478;SDS011;10398;52.490;13.434;2023-06-10T09:11:34;9.55;;;4.57;;
20478;SDS011;10398;52.490;13.434;2023-06-10T09:14:01;13.00;;;5.63;;
20478;SDS011;10398;52.490;13.434;2023-06-10T09:16:27;20.73;;;8.05;;
20478;SDS011;10398;52.490;13.434;2023-06-10T09:18:53;11.82;;;5.60;;
20478;SDS011;10398;52.490;13.434;2023-06-10T09:21:23;11.23;;;4.65;;
20478;SDS011;10398;52.490;13.434;2023-06-10T09:23:50;10.35;;;6.10;;
20478;SDS011;10398;52.490;13.434;2023-06-10T09:26:16;7.68;;;4.57;;
20478;SDS011;10398;52.490;13.434;2023-06-10T09:28:43;7.70;;;4.38;;
20478;SDS011;10398;52.490;13.434;2023-06-10T09:31:12;13.00;;;4.60;;
20478;SDS011;10398;52.490;13.434;2023-06-10T09:33:38;11.65;;;4.68;;
20478;SDS011;10398;52.490;13.434;2023-06-10T09:36:05;9.85;;;4.72;;
20478;SDS011;10398;52.490;13.434;2023-06-10T09:38:32;8.55;;;3.67;;
20478;SDS011;10398;52.490;13.434;2023-06-10T09:40:58;7.03;;;4.22;;
20478;SDS011;10398;52.490;13.434;2023-06-10T09:43:38;13.55;;;4.75;;
20478;SDS011;10398;52.490;13.434;2023-06-10T09:46:04;8.57;;;4.13;;
20478;SDS011;10398;52.490;13.434;2023-06-10T09:48:29;12.30;;;4.40;;
20478;SDS011;10398;52.490;13.434;2023-06-10T09:50:59;14.25;;;4.35;;
20478;SDS011;10398;52.490;13.434;2023-06-10T09:53:24;9.82;;;4.13;;
20478;SDS011;10398;52.490;13.434;2023-06-10T09:55:51;9.30;;;4.00;;
20478;SDS011;10398;52.490;13.434;2023-06-10T09:58:17;15.20;;;4.25;;
20478;SDS011;10398;52.490;13.434;2023-06-10T10:00:43;11.30;;;4.18;;
20478;SDS011;10398;52.490;13.434;2023-06-10T10:03:09;9.68;;;4.00;;
20478;SDS011;10398;52.490;13.434;2023-06-10T10:05:46;10.48;;;4.05;;
20478;SDS011;10398;52.490;13.434;2023-06-10T10:08:12;9.02;;;4.13;;
20478;SDS011;10398;52.490;13.434;2023-06-10T10:10:38;7.65;;;4.20;;
20478;SDS011;10398;52.490;13.434;2023-06-10T10:13:03;9.25;;;4.53;;
20478;SDS011;10398;52.490;13.434;2023-06-10T10:15:30;9.73;;;4.35;;
20478;SDS011;10398;52.490;13.434;2023-06-10T10:20:29;9.73;;;4.32;;
20478;SDS011;10398;52.490;13.434;2023-06-10T10:22:57;11.40;;;4.47;;
20478;SDS011;10398;52.490;13.434;2023-06-10T10:25:25;7.45;;;4.53;;
20478;SDS011;10398;52.490;13.434;2023-06-10T10:27:56;6.93;;;4.18;;
20478;SDS011;10398;52.490;13.434;2023-06-10T10:30:34;8.82;;;3.70;;
20478;SDS011;10398;52.490;13.434;2023-06-10T10:33:16;6.50;;;3.67;;
20478;SDS011;10398;52.490;13.434;2023-06-10T10:35:48;11.43;;;5.75;;
20478;SDS011;10398;52.490;13.434;2023-06-10T10:38:14;8.45;;;3.80;;
20478;SDS011;10398;52.490;13.434;2023-06-10T10:40:40;5.10;;;3.20;;
20478;SDS011;10398;52.490;13.434;2023-06-10T10:43:08;8.38;;;3.95;;
20478;SDS011;10398;52.490;13.434;2023-06-10T10:45:34;8.27;;;3.80;;
20478;SDS011;10398;52.490;13.434;2023-06-10T10:48:04;6.72;;;3.72;;
20478;SDS011;10398;52.490;13.434;2023-06-10T10:50:34;8.73;;;3.55;;
20478;SDS011;10398;52.490;13.434;2023-06-10T10:53:01;16.25;;;4.18;;
20478;SDS011;10398;52.490;13.434;2023-06-10T10:55:28;14.77;;;4.20;;
20478;SDS011;10398;52.490;13.434;2023-06-10T10:58:03;8.52;;;3.85;;
20478;SDS011;10398;52.490;13.434;2023-06-10T11:00:37;5.63;;;3.35;;
20478;SDS011;10398;52.490;13.434;2023-06-10T11:03:13;7.50;;;3.05;;
20478;SDS011;10398;52.490;13.434;2023-06-10T11:05:42;9.18;;;3.17;;
20478;SDS011;10398;52.490;13.434;2023-06-10T11:08:09;5.25;;;3.28;;
20478;SDS011;10398;52.490;13.434;2023-06-10T11:10:36;6.10;;;2.97;;
20478;SDS011;10398;52.490;13.434;2023-06-10T11:13:10;6.55;;;3.15;;
20478;SDS011;10398;52.490;13.434;2023-06-10T11:15:45;6.70;;;2.80;;
20478;SDS011;10398;52.490;13.434;2023-06-10T11:21:03;7.40;;;2.80;;
20478;SDS011;10398;52.490;13.434;2023-06-10T11:31:30;3.70;;;2.70;;
20478;SDS011;10398;52.490;13.434;2023-06-10T11:34:04;5.70;;;3.00;;
20478;SDS011;10398;52.490;13.434;2023-06-10T11:36:31;5.90;;;3.10;;
20478;SDS011;10398;52.490;13.434;2023-06-10T11:39:08;4.68;;;2.90;;
20478;SDS011;10398;52.490;13.434;2023-06-10T11:41:34;5.22;;;3.25;;
20478;SDS011;10398;52.490;13.434;2023-06-10T11:44:08;8.48;;;4.60;;
20478;SDS011;10398;52.490;13.434;2023-06-10T11:46:38;9.48;;;4.30;;
20478;SDS011;10398;52.490;13.434;2023-06-10T11:49:05;5.55;;;3.45;;
20478;SDS011;10398;52.490;13.434;2023-06-10T11:51:37;8.25;;;3.53;;
20478;SDS011;10398;52.490;13.434;2023-06-10T11:54:05;8.07;;;3.50;;
20478;SDS011;10398;52.490;13.434;2023-06-10T11:56:34;6.95;;;3.60;;
20478;SDS011;10398;52.490;13.434;2023-06-10T12:01:31;6.13;;;3.25;;
20478;SDS011;10398;52.490;13.434;2023-06-10T12:03:59;5.00;;;3.30;;
20478;SDS011;10398;52.490;13.434;2023-06-10T12:06:26;7.20;;;2.97;;
20478;SDS011;10398;52.490;13.434;2023-06-10T12:08:53;5.95;;;3.22;;
20478;SDS011;10398;52.490;13.434;2023-06-10T12:11:20;5.78;;;2.83;;
20478;SDS011;10398;52.490;13.434;2023-06-10T12:13:47;6.47;;;3.37;;
20478;SDS011;10398;52.490;13.434;2023-06-10T12:16:14;4.22;;;2.90;;
20478;SDS011;10398;52.490;13.434;2023-06-10T12:18:42;4.70;;;3.08;;
20478;SDS011;10398;52.490;13.434;2023-06-10T12:21:16;5.70;;;3.50;;
20478;SDS011;10398;52.490;13.434;2023-06-10T12:26:43;5.72;;;3.10;;
20478;SDS011;10398;52.490;13.434;2023-06-10T12:29:16;5.82;;;3.22;;
20478;SDS011;10398;52.490;13.434;2023-06-10T12:31:52;6.05;;;3.45;;
20478;SDS011;10398;52.490;13.434;2023-06-10T12:34:18;6.15;;;3.35;;
20478;SDS011;10398;52.490;13.434;2023-06-10T12:36:50;6.93;;;3.75;;
20478;SDS011;10398;52.490;13.434;2023-06-10T12:39:15;5.85;;;3.67;;
20478;SDS011;10398;52.490;13.434;2023-06-10T12:41:46;7.93;;;4.07;;
20478;SDS011;10398;52.490;13.434;2023-06-10T12:44:13;6.53;;;4.20;;
20478;SDS011;10398;52.490;13.434;2023-06-10T12:46:39;6.55;;;4.18;;
20478;SDS011;10398;52.490;13.434;2023-06-10T12:49:05;7.40;;;4.22;;
20478;SDS011;10398;52.490;13.434;2023-06-10T12:51:30;6.53;;;4.05;;
20478;SDS011;10398;52.490;13.434;2023-06-10T12:53:56;7.93;;;4.20;;
20478;SDS011;10398;52.490;13.434;2023-06-10T12:56:22;9.20;;;5.07;;
20478;SDS011;10398;52.490;13.434;2023-06-10T12:58:48;5.55;;;3.97;;
20478;SDS011;10398;52.490;13.434;2023-06-10T13:01:14;7.13;;;4.30;;
20478;SDS011;10398;52.490;13.434;2023-06-10T13:03:40;6.40;;;4.47;;
20478;SDS011;10398;52.490;13.434;2023-06-10T13:06:06;6.15;;;4.53;;
20478;SDS011;10398;52.490;13.434;2023-06-10T13:08:32;7.05;;;4.40;;
20478;SDS011;10398;52.490;13.434;2023-06-10T13:10:58;9.82;;;5.13;;
20478;SDS011;10398;52.490;13.434;2023-06-10T13:13:24;5.90;;;4.40;;
20478;SDS011;10398;52.490;13.434;2023-06-10T13:15:50;7.30;;;5.05;;
20478;SDS011;10398;52.490;13.434;2023-06-10T13:18:16;9.07;;;4.28;;
20478;SDS011;10398;52.490;13.434;2023-06-10T13:20:45;7.55;;;4.38;;
20478;SDS011;10398;52.490;13.434;2023-06-10T13:23:10;6.53;;;4.32;;
20478;SDS011;10398;52.490;13.434;2023-06-10T13:25:36;6.40;;;4.53;;
20478;SDS011;10398;52.490;13.434;2023-06-10T13:28:02;7.80;;;4.47;;
20478;SDS011;10398;52.490;13.434;2023-06-10T13:30:28;7.13;;;4.78;;
20478;SDS011;10398;52.490;13.434;2023-06-10T13:32:53;9.50;;;4.97;;
20478;SDS011;10398;52.490;13.434;2023-06-10T13:35:19;9.90;;;4.70;;
20478;SDS011;10398;52.490;13.434;2023-06-10T13:37:45;11.85;;;4.95;;
20478;SDS011;10398;52.490;13.434;2023-06-10T13:40:11;6.82;;;4.22;;
20478;SDS011;10398;52.490;13.434;2023-06-10T13:42:37;9.45;;;4.72;;
20478;SDS011;10398;52.490;13.434;2023-06-10T13:45:03;7.80;;;4.97;;
20478;SDS011;10398;52.490;13.434;2023-06-10T13:47:30;11.30;;;4.25;;
20478;SDS011;10398;52.490;13.434;2023-06-10T13:49:56;7.32;;;4.95;;
20478;SDS011;10398;52.490;13.434;2023-06-10T13:52:22;9.95;;;4.80;;
20478;SDS011;10398;52.490;13.434;2023-06-10T13:54:47;8.90;;;5.35;;
20478;SDS011;10398;52.490;13.434;2023-06-10T13:57:13;9.57;;;5.63;;
20478;SDS011;10398;52.490;13.434;2023-06-10T13:59:39;8.15;;;4.70;;
20478;SDS011;10398;52.490;13.434;2023-06-10T14:02:04;10.73;;;4.85;;
20478;SDS011;10398;52.490;13.434;2023-06-10T14:04:30;7.80;;;4.65;;
20478;SDS011;10398;52.490;13.434;2023-06-10T14:06:56;6.25;;;3.85;;
20478;SDS011;10398;52.490;13.434;2023-06-10T14:09:22;7.45;;;4.10;;
20478;SDS011;10398;52.490;13.434;2023-06-10T14:11:48;6.63;;;4.10;;
20478;SDS011;10398;52.490;13.434;2023-06-10T14:14:13;7.47;;;3.92;;
20478;SDS011;10398;52.490;13.434;2023-06-10T14:16:40;9.52;;;3.72;;
20478;SDS011;10398;52.490;13.434;2023-06-10T14:19:05;5.90;;;4.00;;
20478;SDS011;10398;52.490;13.434;2023-06-10T14:21:31;7.85;;;4.28;;
20478;SDS011;10398;52.490;13.434;2023-06-10T14:23:56;5.40;;;3.60;;
20478;SDS011;10398;52.490;13.434;2023-06-10T14:26:22;6.35;;;4.00;;
20478;SDS011;10398;52.490;13.434;2023-06-10T14:28:48;5.63;;;4.03;;
20478;SDS011;10398;52.490;13.434;2023-06-10T14:31:14;6.80;;;3.88;;
20478;SDS011;10398;52.490;13.434;2023-06-10T14:33:40;6.30;;;3.72;;
20478;SDS011;10398;52.490;13.434;2023-06-10T14:36:08;7.57;;;3.70;;
20478;SDS011;10398;52.490;13.434;2023-06-10T14:38:34;5.95;;;3.58;;
20478;SDS011;10398;52.490;13.434;2023-06-10T14:41:00;6.03;;;3.70;;
20478;SDS011;10398;52.490;13.434;2023-06-10T14:43:25;7.18;;;3.97;;
20478;SDS011;10398;52.490;13.434;2023-06-10T14:45:51;8.27;;;4.35;;
20478;SDS011;10398;52.490;13.434;2023-06-10T14:48:17;6.60;;;3.92;;
20478;SDS011;10398;52.490;13.434;2023-06-10T14:50:42;7.35;;;3.45;;
20478;SDS011;10398;52.490;13.434;2023-06-10T14:53:11;7.65;;;3.80;;
20478;SDS011;10398;52.490;13.434;2023-06-10T14:55:37;7.53;;;3.67;;